Time;durP1;ratioP1;P1;durP2;ratioP2;P2;SDS_P1;SDS_P2;PMS_P1;PMS_P2;Temp;Humidity;BMP_temperature;BMP_pressure;BME280_temperature;BME280_humidity;BME280_pressure;Samples;Min_cycle;Max_cycle;Signal;HPM_P1;HPM_P2
2022/01/05 00:00:27;;;;;;;3.00;1.60;;;7.60;99.90;;;;;;4974146;28;20179;-65
2022/01/05 00:02:53;;;;;;;1.07;0.90;;;7.60;99.90;;;;;;4975039;28;20179;-64
2022/01/05 00:05:18;;;;;;;1.20;1.10;;;7.60;99.90;;;;;;4957292;28;20183;-64
2022/01/05 00:07:44;;;;;;;1.03;0.80;;;7.60;99.90;;;;;;4980532;28;20183;-64
2022/01/05 00:10:10;;;;;;;1.07;0.97;;;7.50;99.90;;;;;;4993351;28;20208;-64
2022/01/05 00:12:36;;;;;;;0.87;0.80;;;7.20;99.90;;;;;;4993802;28;20205;-63
2022/01/05 00:15:04;;;;;;;0.90;0.80;;;7.10;99.90;;;;;;4993775;28;20820;-64
2022/01/05 00:17:30;;;;;;;0.70;0.60;;;7.30;99.90;;;;;;4993548;28;20504;-63
2022/01/05 00:19:55;;;;;;;0.80;0.80;;;7.10;99.90;;;;;;4994071;28;20443;-63
2022/01/05 00:22:22;;;;;;;1.00;0.57;;;7.10;99.90;;;;;;4993818;28;20746;-63
2022/01/05 00:24:47;;;;;;;0.87;0.63;;;7.10;99.90;;;;;;4993963;28;20772;-65
2022/01/05 00:27:14;;;;;;;0.97;0.80;;;7.30;99.90;;;;;;4994001;28;20420;-63
2022/01/05 00:29:40;;;;;;;0.70;0.60;;;7.30;99.90;;;;;;4993824;28;20173;-63
2022/01/05 00:32:06;;;;;;;0.70;0.60;;;7.40;99.90;;;;;;4976040;28;20461;-64
2022/01/05 00:34:31;;;;;;;1.00;0.87;;;7.40;99.90;;;;;;4993962;28;20657;-63
2022/01/05 00:36:57;;;;;;;0.80;0.60;;;7.50;99.90;;;;;;4993945;28;20402;-64
2022/01/05 00:39:23;;;;;;;1.63;1.00;;;7.40;99.90;;;;;;4993072;28;20180;-63
2022/01/05 00:41:48;;;;;;;0.77;0.70;;;7.30;99.90;;;;;;4996572;28;20194;-63
2022/01/05 00:44:14;;;;;;;1.03;0.83;;;7.20;99.90;;;;;;4997253;28;20179;-63
2022/01/05 00:46:40;;;;;;;1.20;0.80;;;7.30;99.90;;;;;;4997237;28;20277;-63
2022/01/05 00:49:05;;;;;;;0.70;0.60;;;7.20;99.90;;;;;;4997036;28;20258;-64
2022/01/05 00:51:31;;;;;;;0.70;0.60;;;7.20;99.90;;;;;;4979379;28;20209;-63
2022/01/05 00:53:56;;;;;;;1.37;0.53;;;7.20;99.90;;;;;;4984799;28;20170;-63
2022/01/05 00:56:22;;;;;;;1.00;0.63;;;7.20;99.90;;;;;;4976862;28;20198;-63
2022/01/05 00:58:48;;;;;;;0.90;0.70;;;7.10;99.90;;;;;;4977079;28;20229;-64
2022/01/05 01:01:13;;;;;;;0.80;0.50;;;7.10;99.90;;;;;;4977051;28;20200;-65
2022/01/05 01:03:42;;;;;;;0.70;0.60;;;7.00;99.90;;;;;;4977437;28;20581;-64
2022/01/05 01:06:08;;;;;;;0.70;0.70;;;7.20;99.90;;;;;;4976840;28;20185;-64
2022/01/05 01:08:33;;;;;;;0.70;0.50;;;7.20;99.90;;;;;;4989885;28;20419;-63
2022/01/05 01:10:59;;;;;;;0.70;0.60;;;7.30;99.90;;;;;;4994753;28;20222;-63
2022/01/05 01:13:25;;;;;;;0.70;0.53;;;7.30;99.90;;;;;;4977746;28;20193;-63
2022/01/05 01:15:51;;;;;;;0.70;0.50;;;7.20;99.90;;;;;;4976770;28;20194;-65
2022/01/05 01:18:18;;;;;;;0.70;0.60;;;7.10;99.90;;;;;;4976805;28;20244;-64
2022/01/05 01:20:45;;;;;;;0.90;0.50;;;7.00;99.90;;;;;;4973638;28;20433;-64
2022/01/05 01:23:11;;;;;;;0.70;0.60;;;7.20;99.90;;;;;;4976960;28;20439;-63
2022/01/05 01:25:37;;;;;;;0.77;0.50;;;7.10;99.90;;;;;;4976629;28;20413;-63
2022/01/05 01:28:03;;;;;;;0.70;0.50;;;7.00;99.90;;;;;;4976922;28;20410;-64
2022/01/05 01:30:31;;;;;;;0.80;0.60;;;6.90;99.90;;;;;;4976954;28;20181;-63
2022/01/05 01:32:57;;;;;;;0.70;0.53;;;6.90;99.90;;;;;;4976738;28;20692;-63
2022/01/05 01:35:23;;;;;;;0.80;0.50;;;6.90;99.90;;;;;;4976523;28;20403;-63
2022/01/05 01:37:48;;;;;;;0.60;0.40;;;6.90;99.90;;;;;;4983850;28;20420;-63
2022/01/05 01:40:14;;;;;;;0.70;0.50;;;6.90;99.90;;;;;;4996128;28;20502;-63
2022/01/05 01:42:40;;;;;;;0.93;0.60;;;7.10;99.90;;;;;;4995692;28;20279;-63
2022/01/05 01:45:07;;;;;;;1.37;0.50;;;7.10;99.90;;;;;;4995907;28;20640;-63
2022/01/05 01:47:35;;;;;;;0.60;0.50;;;7.20;99.90;;;;;;4994247;28;20471;-63
2022/01/05 01:50:01;;;;;;;0.80;0.70;;;7.10;99.90;;;;;;4976002;28;20447;-63
2022/01/05 01:52:26;;;;;;;0.60;0.40;;;7.10;99.90;;;;;;4975357;28;20505;-63
2022/01/05 01:54:52;;;;;;;0.70;0.40;;;7.10;99.90;;;;;;4975848;28;20169;-63
2022/01/05 01:57:20;;;;;;;0.80;0.53;;;7.00;99.90;;;;;;4976170;28;20175;-63
2022/01/05 01:59:47;;;;;;;0.70;0.50;;;7.00;99.90;;;;;;4976161;28;20177;-64
2022/01/05 02:02:16;;;;;;;0.80;0.50;;;7.10;99.90;;;;;;4975771;28;20511;-63
2022/01/05 02:04:43;;;;;;;0.80;0.50;;;7.10;99.90;;;;;;4975947;28;20427;-64
2022/01/05 02:07:09;;;;;;;0.70;0.50;;;7.10;99.90;;;;;;4978047;28;20416;-64
2022/01/05 02:09:35;;;;;;;0.80;0.40;;;7.30;99.90;;;;;;4995156;28;20496;-64
2022/01/05 02:12:01;;;;;;;0.90;0.60;;;7.40;99.90;;;;;;4994696;28;20469;-64
2022/01/05 02:14:26;;;;;;;2.03;0.60;;;7.40;99.90;;;;;;4994851;28;20402;-63
2022/01/05 02:16:52;;;;;;;0.70;0.47;;;7.40;99.90;;;;;;4995339;28;20292;-64
2022/01/05 02:19:18;;;;;;;0.70;0.50;;;7.50;99.90;;;;;;4995604;28;20169;-64
2022/01/05 02:21:43;;;;;;;0.90;0.60;;;7.60;99.90;;;;;;4995180;28;20196;-64
2022/01/05 02:24:10;;;;;;;0.70;0.50;;;7.70;99.90;;;;;;4994969;28;20179;-64
2022/01/05 02:26:37;;;;;;;0.73;0.53;;;7.60;99.90;;;;;;4994892;28;20612;-64
2022/01/05 02:29:04;;;;;;;0.70;0.53;;;7.50;99.90;;;;;;4994920;28;20505;-64
2022/01/05 02:31:30;;;;;;;0.60;0.53;;;7.50;99.90;;;;;;4977215;28;20460;-64
2022/01/05 02:33:56;;;;;;;0.60;0.50;;;7.60;99.90;;;;;;4995168;28;20406;-64
2022/01/05 02:36:22;;;;;;;1.00;0.60;;;7.70;99.90;;;;;;4994842;28;20507;-63
2022/01/05 02:38:49;;;;;;;1.07;0.57;;;7.50;99.90;;;;;;4994994;28;20181;-63
2022/01/05 02:41:15;;;;;;;0.80;0.57;;;7.60;99.90;;;;;;4994448;28;20232;-63
2022/01/05 02:43:42;;;;;;;1.03;0.60;;;7.40;99.90;;;;;;4994849;28;20450;-63
2022/01/05 02:46:13;;;;;;;1.70;0.67;;;7.40;99.90;;;;;;4994597;28;20913;-63
2022/01/05 02:48:40;;;;;;;0.83;0.50;;;7.30;99.90;;;;;;4967310;28;20975;-63
2022/01/05 02:51:06;;;;;;;0.60;0.40;;;7.20;99.90;;;;;;5002618;23;20454;-61
2022/01/05 02:53:32;;;;;;;0.90;0.50;;;7.30;99.90;;;;;;5014579;28;20398;-63
2022/01/05 02:55:58;;;;;;;0.67;0.50;;;7.20;99.90;;;;;;5014367;28;20410;-63
2022/01/05 02:58:24;;;;;;;0.70;0.50;;;7.10;99.90;;;;;;5014337;28;20396;-63
2022/01/05 03:00:50;;;;;;;0.70;0.50;;;7.20;99.90;;;;;;5013806;28;20637;-60
2022/01/05 03:03:15;;;;;;;0.77;0.67;;;7.30;99.90;;;;;;5013819;28;20177;-62
2022/01/05 03:05:41;;;;;;;0.80;0.70;;;7.20;99.90;;;;;;5013705;28;20177;-62
2022/01/05 03:08:07;;;;;;;0.70;0.60;;;7.10;99.90;;;;;;5013693;28;20182;-62
2022/01/05 03:10:33;;;;;;;1.10;0.60;;;7.20;99.90;;;;;;5013974;28;20173;-61
2022/01/05 03:12:59;;;;;;;2.10;0.90;;;7.20;99.90;;;;;;5013724;28;20324;-61
2022/01/05 03:15:24;;;;;;;1.00;0.60;;;7.10;99.90;;;;;;4995983;28;20459;-62
2022/01/05 03:17:50;;;;;;;0.90;0.67;;;7.20;99.90;;;;;;5013875;28;20177;-62
2022/01/05 03:20:19;;;;;;;1.00;0.63;;;7.10;99.90;;;;;;5014141;28;20172;-62
2022/01/05 03:22:45;;;;;;;1.57;0.63;;;7.10;99.90;;;;;;5006642;28;20612;-61
2022/01/05 03:25:16;;;;;;;1.47;0.60;;;7.10;99.90;;;;;;5013901;28;20396;-62
2022/01/05 03:27:43;;;;;;;7.60;0.80;;;7.00;99.90;;;;;;5013864;28;20396;-62
2022/01/05 03:30:10;;;;;;;1.13;0.70;;;7.00;99.90;;;;;;5013509;28;20409;-62
2022/01/05 03:32:40;;;;;;;0.70;0.50;;;7.00;99.90;;;;;;5013450;28;20456;-62
2022/01/05 03:35:06;;;;;;;0.70;0.50;;;6.90;99.90;;;;;;5013533;28;20448;-61
2022/01/05 03:37:32;;;;;;;0.90;0.60;;;6.80;99.90;;;;;;5013350;28;20501;-62
2022/01/05 03:39:57;;;;;;;0.80;0.50;;;6.90;99.90;;;;;;5013710;28;20406;-62
2022/01/05 03:42:23;;;;;;;0.70;0.60;;;7.00;99.90;;;;;;5013425;28;20560;-61
2022/01/05 03:44:48;;;;;;;0.90;0.60;;;6.90;99.90;;;;;;5013169;28;20200;-62
2022/01/05 03:47:14;;;;;;;0.60;0.50;;;6.80;99.90;;;;;;4996833;28;20178;-62
2022/01/05 03:49:39;;;;;;;0.70;0.50;;;6.80;99.90;;;;;;4993814;28;20259;-62
2022/01/05 03:52:05;;;;;;;1.03;0.50;;;6.80;99.90;;;;;;4998378;28;20223;-62
2022/01/05 03:54:31;;;;;;;0.70;0.60;;;6.70;99.90;;;;;;4994201;28;20204;-61
2022/01/05 03:56:56;;;;;;;0.90;0.50;;;6.80;99.90;;;;;;4993621;28;20173;-62
2022/01/05 03:59:22;;;;;;;0.60;0.50;;;6.80;99.90;;;;;;4993682;28;20161;-62
2022/01/05 04:01:47;;;;;;;0.67;0.50;;;6.90;99.90;;;;;;4993558;28;20194;-62
2022/01/05 04:04:13;;;;;;;0.80;0.60;;;6.80;99.90;;;;;;4993534;28;20174;-61
2022/01/05 04:06:39;;;;;;;0.87;0.50;;;6.80;99.90;;;;;;4993393;28;20178;-62
2022/01/05 04:09:04;;;;;;;0.60;0.40;;;6.90;99.90;;;;;;4993599;28;20170;-62
2022/01/05 04:11:30;;;;;;;1.10;0.50;;;7.00;99.90;;;;;;4993584;28;20201;-62
2022/01/05 04:13:55;;;;;;;0.60;0.50;;;7.00;99.90;;;;;;4993812;28;20201;-62
2022/01/05 04:16:21;;;;;;;1.33;0.60;;;6.90;99.90;;;;;;4995571;28;20162;-62
2022/01/05 04:18:46;;;;;;;0.60;0.50;;;6.90;99.90;;;;;;4997557;28;20205;-62
2022/01/05 04:21:12;;;;;;;0.70;0.50;;;6.90;99.90;;;;;;4999962;28;20196;-62
2022/01/05 04:23:38;;;;;;;0.80;0.40;;;6.90;99.90;;;;;;5017009;28;20637;-63
2022/01/05 04:26:03;;;;;;;0.90;0.50;;;7.00;99.90;;;;;;5016879;28;20177;-61
2022/01/05 04:28:29;;;;;;;0.70;0.50;;;6.90;99.90;;;;;;5016901;28;20188;-62
2022/01/05 04:30:54;;;;;;;0.70;0.50;;;7.00;99.90;;;;;;5016505;28;20273;-63
2022/01/05 04:33:20;;;;;;;0.80;0.50;;;7.10;99.90;;;;;;5016874;28;20175;-62
2022/01/05 04:35:45;;;;;;;0.67;0.50;;;7.30;99.90;;;;;;5016497;28;20598;-63
2022/01/05 04:38:11;;;;;;;0.70;0.50;;;7.20;99.90;;;;;;5016593;28;20178;-62
2022/01/05 04:40:37;;;;;;;0.63;0.43;;;7.00;99.90;;;;;;5013164;28;20547;-62
2022/01/05 04:43:02;;;;;;;0.77;0.50;;;7.00;99.90;;;;;;4996832;28;20184;-60
2022/01/05 04:45:28;;;;;;;0.80;0.70;;;7.10;99.90;;;;;;4996682;28;20173;-63
2022/01/05 04:47:53;;;;;;;1.40;0.60;;;7.00;99.90;;;;;;4996723;28;20685;-63
2022/01/05 04:50:20;;;;;;;0.87;0.63;;;7.00;99.90;;;;;;4996831;28;20587;-63
2022/01/05 04:52:45;;;;;;;0.60;0.50;;;7.00;99.90;;;;;;5003462;28;20207;-62
2022/01/05 04:55:11;;;;;;;0.87;0.50;;;6.90;99.90;;;;;;4996750;28;20779;-63
2022/01/05 04:57:37;;;;;;;0.83;0.53;;;7.10;99.90;;;;;;4996672;28;20165;-63
2022/01/05 05:00:04;;;;;;;0.70;0.50;;;7.00;99.90;;;;;;4996455;28;20168;-62
2022/01/05 05:02:29;;;;;;;0.70;0.50;;;7.00;99.90;;;;;;4996490;28;20470;-62
2022/01/05 05:04:55;;;;;;;0.70;0.50;;;6.90;99.90;;;;;;4987801;28;20909;-60
2022/01/05 05:07:21;;;;;;;1.13;0.50;;;6.90;99.90;;;;;;4987201;28;20591;-63
2022/01/05 05:09:46;;;;;;;1.00;0.50;;;6.90;99.90;;;;;;4987542;28;20182;-60
2022/01/05 05:12:12;;;;;;;0.60;0.50;;;6.90;99.90;;;;;;4987338;28;20204;-65
2022/01/05 05:14:37;;;;;;;0.77;0.50;;;6.60;99.90;;;;;;4974630;28;20233;-63
2022/01/05 05:17:03;;;;;;;0.70;0.60;;;6.70;99.90;;;;;;4987052;28;20646;-62
2022/01/05 05:19:31;;;;;;;1.20;0.73;;;6.80;99.90;;;;;;4987470;28;20182;-62
2022/01/05 05:21:57;;;;;;;0.90;0.60;;;6.70;99.90;;;;;;4986590;28;20197;-62
2022/01/05 05:24:22;;;;;;;1.17;0.70;;;6.70;99.90;;;;;;4987098;28;20507;-61
2022/01/05 05:26:48;;;;;;;0.90;0.50;;;6.70;99.90;;;;;;4986136;28;20507;-62
2022/01/05 05:29:14;;;;;;;1.17;0.90;;;6.50;99.90;;;;;;4986711;28;20205;-60
2022/01/05 05:31:39;;;;;;;1.20;0.83;;;5.70;99.90;;;;;;4986531;28;20744;-60
2022/01/05 05:34:05;;;;;;;2.10;0.93;;;5.10;99.90;;;;;;4986866;28;20185;-61
2022/01/05 05:36:30;;;;;;;1.57;1.37;;;4.80;99.90;;;;;;4986677;28;20215;-61
2022/01/05 05:38:56;;;;;;;1.10;0.90;;;4.50;99.90;;;;;;4986721;28;20736;-61
2022/01/05 05:41:21;;;;;;;1.10;0.93;;;4.50;99.90;;;;;;4987037;28;20200;-61
2022/01/05 05:43:49;;;;;;;1.50;0.90;;;4.40;99.90;;;;;;4986766;28;20188;-60
2022/01/05 05:46:15;;;;;;;1.70;1.27;;;4.40;99.90;;;;;;4986334;28;20756;-61
2022/01/05 05:48:41;;;;;;;1.63;1.53;;;4.30;99.90;;;;;;4986883;28;20415;-60
2022/01/05 05:51:06;;;;;;;1.50;1.40;;;4.30;99.90;;;;;;4986396;28;20534;-61
2022/01/05 05:53:32;;;;;;;1.23;0.90;;;4.30;99.90;;;;;;4986383;28;20768;-63
2022/01/05 05:55:58;;;;;;;1.33;1.03;;;4.30;99.90;;;;;;4986422;28;20530;-63
2022/01/05 05:58:23;;;;;;;1.63;1.20;;;4.30;99.90;;;;;;4986281;28;20184;-60
2022/01/05 06:00:49;;;;;;;1.83;1.73;;;4.40;99.90;;;;;;4986222;28;20192;-63
2022/01/05 06:03:15;;;;;;;1.30;1.13;;;4.50;99.90;;;;;;4986050;28;20192;-62
2022/01/05 06:05:40;;;;;;;1.30;1.20;;;4.50;99.90;;;;;;4986274;28;20254;-63
2022/01/05 06:08:06;;;;;;;1.30;1.20;;;4.50;99.90;;;;;;4985898;28;21327;-61
2022/01/05 06:10:32;;;;;;;1.20;1.10;;;4.50;99.90;;;;;;4986144;28;20542;-63
2022/01/05 06:12:57;;;;;;;1.60;1.50;;;4.50;99.90;;;;;;4985903;28;20216;-63
2022/01/05 06:15:23;;;;;;;1.23;1.13;;;4.60;99.90;;;;;;4985798;28;20207;-63
2022/01/05 06:17:49;;;;;;;1.20;1.10;;;4.60;99.90;;;;;;4986167;28;20641;-63
2022/01/05 06:20:15;;;;;;;2.73;1.47;;;4.60;99.90;;;;;;4986065;28;20189;-62
2022/01/05 06:22:41;;;;;;;2.10;1.10;;;4.60;99.90;;;;;;4985905;28;20197;-62
2022/01/05 06:25:09;;;;;;;1.30;1.20;;;4.60;99.90;;;;;;4984569;28;20420;-62
2022/01/05 06:27:35;;;;;;;1.63;1.53;;;4.70;99.90;;;;;;4987984;28;20427;-63
2022/01/05 06:30:06;;;;;;;1.50;1.40;;;4.80;99.90;;;;;;4995115;28;20773;-63
2022/01/05 06:32:33;;;;;;;2.30;1.60;;;4.90;99.90;;;;;;4994624;28;20615;-63
2022/01/05 06:35:00;;;;;;;7.20;1.77;;;5.00;99.90;;;;;;4995200;28;20416;-62
2022/01/05 06:37:26;;;;;;;1.40;1.30;;;5.10;99.90;;;;;;4994492;28;20439;-62
2022/01/05 06:39:52;;;;;;;1.40;1.27;;;4.90;99.90;;;;;;4993023;28;20491;-62
2022/01/05 06:42:17;;;;;;;1.60;1.50;;;4.90;99.90;;;;;;4994383;28;20443;-61
2022/01/05 06:44:43;;;;;;;3.63;2.03;;;4.90;99.90;;;;;;4994606;28;20719;-62
2022/01/05 06:47:10;;;;;;;4.80;2.50;;;5.00;99.90;;;;;;4994488;28;20175;-61
2022/01/05 06:49:36;;;;;;;2.77;2.07;;;5.00;99.90;;;;;;4994883;28;20572;-62
2022/01/05 06:52:01;;;;;;;1.43;1.30;;;5.00;99.90;;;;;;5003460;28;20546;-62
2022/01/05 06:54:27;;;;;;;1.73;1.40;;;4.90;99.90;;;;;;5014037;28;20176;-62
2022/01/05 06:56:53;;;;;;;3.17;1.60;;;4.90;99.90;;;;;;5010349;28;20164;-62
2022/01/05 06:59:18;;;;;;;1.80;1.60;;;4.80;99.90;;;;;;4994567;28;20215;-62
2022/01/05 07:01:44;;;;;;;1.33;1.23;;;4.90;99.90;;;;;;4994154;28;20184;-62
2022/01/05 07:04:09;;;;;;;1.80;1.50;;;4.90;99.90;;;;;;4994293;28;20630;-62
2022/01/05 07:06:35;;;;;;;1.67;1.57;;;4.80;99.90;;;;;;4994175;28;20230;-62
2022/01/05 07:09:01;;;;;;;2.10;1.60;;;4.80;99.90;;;;;;4994415;28;20168;-62
2022/01/05 07:11:26;;;;;;;2.20;1.47;;;4.90;99.90;;;;;;4993915;28;20201;-62
2022/01/05 07:13:52;;;;;;;2.13;1.53;;;5.00;99.90;;;;;;4994364;28;20226;-62
2022/01/05 07:16:17;;;;;;;1.50;1.40;;;4.90;99.90;;;;;;4993976;28;20169;-62
2022/01/05 07:18:43;;;;;;;1.50;1.40;;;5.00;99.90;;;;;;4994437;28;20169;-62
2022/01/05 07:21:08;;;;;;;2.87;1.60;;;5.00;99.90;;;;;;4993475;28;20181;-63
2022/01/05 07:23:34;;;;;;;2.00;1.73;;;5.00;99.90;;;;;;5013353;28;20246;-61
2022/01/05 07:26:00;;;;;;;2.43;1.47;;;5.00;99.90;;;;;;5013888;28;20739;-61
2022/01/05 07:28:25;;;;;;;2.00;1.80;;;4.60;99.90;;;;;;5013649;28;20638;-62
2022/01/05 07:30:51;;;;;;;1.93;1.40;;;4.60;99.90;;;;;;5013493;28;20166;-62
2022/01/05 07:33:17;;;;;;;1.70;1.20;;;4.70;99.90;;;;;;5011440;28;20234;-62
2022/01/05 07:35:42;;;;;;;4.30;2.27;;;4.60;99.90;;;;;;4993890;28;20215;-62
2022/01/05 07:38:08;;;;;;;2.90;1.57;;;4.60;99.90;;;;;;4993897;28;20164;-62
2022/01/05 07:40:33;;;;;;;1.90;1.70;;;4.60;99.90;;;;;;4993879;28;20161;-62
2022/01/05 07:42:59;;;;;;;1.57;1.47;;;4.50;99.90;;;;;;4994478;28;20251;-60
2022/01/05 07:45:24;;;;;;;4.33;2.20;;;4.40;99.90;;;;;;4993836;28;20169;-62
2022/01/05 07:47:50;;;;;;;4.07;1.97;;;4.50;99.90;;;;;;4993477;28;20542;-62
2022/01/05 07:50:16;;;;;;;2.83;2.00;;;4.60;99.90;;;;;;4994400;28;20169;-62
2022/01/05 07:52:44;;;;;;;2.30;2.10;;;4.40;99.90;;;;;;5012264;28;20290;-62
2022/01/05 07:55:10;;;;;;;2.90;2.20;;;4.30;99.90;;;;;;5017738;28;20180;-62
2022/01/05 07:57:37;;;;;;;2.20;2.00;;;4.30;99.90;;;;;;4990123;28;20423;-61
2022/01/05 08:00:08;;;;;;;3.00;2.50;;;4.20;99.90;;;;;;4988494;28;20495;-62
2022/01/05 08:02:34;;;;;;;6.13;2.70;;;4.10;99.90;;;;;;4993075;28;20438;-62
2022/01/05 08:04:59;;;;;;;4.13;2.20;;;4.10;99.90;;;;;;4997619;28;20415;-60
2022/01/05 08:07:25;;;;;;;3.23;2.27;;;4.20;99.90;;;;;;4997403;28;20172;-62
2022/01/05 08:09:50;;;;;;;2.63;2.10;;;4.30;99.90;;;;;;4997289;28;20251;-62
2022/01/05 08:12:16;;;;;;;3.53;3.20;;;4.20;99.90;;;;;;4997243;28;20203;-63
2022/01/05 08:14:41;;;;;;;6.50;2.80;;;4.20;99.90;;;;;;4997453;28;20581;-63
2022/01/05 08:17:07;;;;;;;4.23;3.07;;;4.10;99.90;;;;;;4997295;28;20196;-60
2022/01/05 08:19:33;;;;;;;4.90;3.63;;;4.10;99.90;;;;;;4997176;28;20195;-62
2022/01/05 08:21:59;;;;;;;5.23;3.47;;;4.10;99.90;;;;;;5005976;28;20606;-61
2022/01/05 08:24:26;;;;;;;3.83;3.43;;;4.20;99.90;;;;;;5016628;28;20417;-62
2022/01/05 08:26:52;;;;;;;5.23;3.47;;;4.40;99.90;;;;;;5016510;28;20222;-60
2022/01/05 08:29:18;;;;;;;5.60;4.40;;;4.20;99.90;;;;;;5016650;28;20399;-62
2022/01/05 08:31:44;;;;;;;3.13;2.50;;;4.10;99.90;;;;;;5016260;28;20465;-62
2022/01/05 08:34:10;;;;;;;3.17;2.87;;;4.10;99.90;;;;;;5007108;28;20168;-61
2022/01/05 08:36:36;;;;;;;3.17;2.70;;;4.10;99.90;;;;;;4996929;28;20169;-62
2022/01/05 08:39:02;;;;;;;4.60;3.10;;;4.00;99.90;;;;;;4996713;28;20407;-63
2022/01/05 08:41:27;;;;;;;5.10;2.93;;;4.10;99.90;;;;;;4996773;28;20195;-63
2022/01/05 08:43:54;;;;;;;3.63;3.30;;;4.10;99.90;;;;;;4990247;28;20568;-63
2022/01/05 08:46:20;;;;;;;4.97;2.60;;;4.00;99.90;;;;;;4987155;28;20177;-61
2022/01/05 08:48:46;;;;;;;5.23;2.50;;;3.90;99.90;;;;;;4987543;28;20419;-63
2022/01/05 08:51:12;;;;;;;6.77;2.93;;;4.00;99.90;;;;;;4987618;28;20501;-60
2022/01/05 08:53:38;;;;;;;4.00;2.70;;;4.00;99.90;;;;;;5004622;22;20578;-61
2022/01/05 08:56:04;;;;;;;5.00;2.60;;;3.90;99.90;;;;;;4993699;28;20180;-61
2022/01/05 08:58:29;;;;;;;5.33;3.17;;;3.90;99.90;;;;;;4997025;28;20173;-59
2022/01/05 09:00:55;;;;;;;4.03;2.80;;;3.70;99.90;;;;;;4996128;28;20403;-61
2022/01/05 09:03:21;;;;;;;5.00;2.67;;;3.70;99.90;;;;;;4996356;28;20188;-61
2022/01/05 09:05:46;;;;;;;5.00;2.70;;;3.90;99.90;;;;;;4996602;28;20168;-61
2022/01/05 09:08:13;;;;;;;6.03;2.70;;;4.10;99.90;;;;;;4995843;28;20200;-61
2022/01/05 09:10:39;;;;;;;2.93;2.57;;;4.10;99.90;;;;;;4996443;28;20168;-61
2022/01/05 09:13:06;;;;;;;3.53;2.90;;;4.20;99.90;;;;;;4994773;28;20463;-61
2022/01/05 09:15:34;;;;;;;4.97;2.67;;;4.20;99.90;;;;;;4995959;28;20920;-59
2022/01/05 09:18:00;;;;;;;3.90;2.93;;;4.20;99.90;;;;;;4995678;28;20503;-62
2022/01/05 09:20:25;;;;;;;4.90;2.83;;;4.30;99.90;;;;;;4996184;28;20431;-62
2022/01/05 09:22:51;;;;;;;3.30;2.50;;;4.30;99.90;;;;;;4995649;28;20431;-62
2022/01/05 09:25:18;;;;;;;3.07;2.10;;;4.40;99.90;;;;;;4995795;28;20171;-61
2022/01/05 09:27:44;;;;;;;5.50;3.57;;;4.20;99.90;;;;;;4996046;28;20195;-62
2022/01/05 09:30:16;;;;;;;5.80;2.70;;;4.20;99.90;;;;;;4995485;28;20404;-61
2022/01/05 09:32:41;;;;;;;4.87;3.43;;;4.20;99.90;;;;;;4987321;28;20459;-61
2022/01/05 09:35:10;;;;;;;5.27;2.33;;;4.30;99.90;;;;;;4992226;28;20435;-61
2022/01/05 09:37:40;;;;;;;3.90;2.07;;;4.30;99.90;;;;;;4995667;28;20176;-62
2022/01/05 09:42:51;;;;;;;3.30;2.50;;;4.30;99.90;;;;;;4996149;28;20454;-62
2022/01/05 09:45:19;;;;;;;4.90;2.57;;;4.50;99.90;;;;;;4995633;28;20849;-61
2022/01/05 09:48:15;;;;;;;5.30;3.60;;;4.80;99.90;;;;;;4995263;28;20400;-61
2022/01/05 09:50:53;;;;;;;4.50;2.37;;;4.80;99.90;;;;;;4995471;28;20384;-61
2022/01/05 09:53:21;;;;;;;4.03;2.30;;;4.90;99.90;;;;;;4977585;28;20475;-61
2022/01/05 09:55:51;;;;;;;3.43;2.50;;;4.70;99.90;;;;;;4995844;28;20403;-62
2022/01/05 09:58:21;;;;;;;7.57;2.90;;;4.60;99.90;;;;;;4977801;28;20920;-61
2022/01/05 10:00:47;;;;;;;2.30;2.00;;;4.60;99.90;;;;;;4987048;28;20466;-61
2022/01/05 10:03:14;;;;;;;5.73;2.57;;;4.60;99.90;;;;;;4975660;28;20455;-61
2022/01/05 10:05:41;;;;;;;4.27;2.80;;;4.60;99.90;;;;;;4976097;28;20400;-61
2022/01/05 10:08:07;;;;;;;5.03;2.00;;;4.60;99.90;;;;;;4958049;28;20816;-58
2022/01/05 10:10:32;;;;;;;5.03;2.47;;;4.50;99.90;;;;;;4975821;28;20552;-62
2022/01/05 10:12:58;;;;;;;7.07;2.20;;;4.30;99.90;;;;;;4975095;28;20488;-59
2022/01/05 10:15:26;;;;;;;3.70;2.23;;;4.30;99.90;;;;;;4975744;28;20248;-61
2022/01/05 10:18:18;;;;;;;7.60;3.43;;;4.30;99.90;;;;;;4975270;28;20307;-61
2022/01/05 10:20:57;;;;;;;4.40;2.40;;;4.20;99.90;;;;;;4986509;28;20505;-59
2022/01/05 10:23:34;;;;;;;7.90;3.17;;;4.30;99.90;;;;;;4988660;28;20470;-61
2022/01/05 10:26:21;;;;;;;5.27;2.73;;;4.20;99.90;;;;;;4995060;28;20486;-59
2022/01/05 10:28:48;;;;;;;11.37;3.37;;;4.10;99.90;;;;;;4994361;28;20395;-59
2022/01/05 10:31:19;;;;;;;5.53;1.83;;;4.10;99.90;;;;;;4994073;28;20486;-62
2022/01/05 10:33:45;;;;;;;3.77;2.00;;;4.20;99.90;;;;;;4994586;28;20881;-62
2022/01/05 10:36:10;;;;;;;5.60;2.33;;;4.20;99.90;;;;;;4994612;28;20404;-62
2022/01/05 10:38:36;;;;;;;4.70;2.27;;;4.40;99.90;;;;;;4994462;28;20564;-60
2022/01/05 10:41:17;;;;;;;4.03;2.10;;;4.40;99.90;;;;;;4995144;28;20157;-61
2022/01/05 10:44:08;;;;;;;7.57;2.90;;;4.60;99.90;;;;;;4994373;28;20719;-62
2022/01/05 10:46:41;;;;;;;6.20;1.97;;;4.60;99.90;;;;;;4994283;28;20415;-62
2022/01/05 10:49:07;;;;;;;8.77;2.30;;;4.50;99.90;;;;;;4994411;28;20899;-62
2022/01/05 10:51:34;;;;;;;7.23;2.40;;;4.50;99.90;;;;;;4994464;28;20522;-60
2022/01/05 10:54:18;;;;;;;4.30;2.80;;;4.60;99.90;;;;;;4993905;28;20554;-62
2022/01/05 10:56:44;;;;;;;8.70;2.23;;;4.40;99.90;;;;;;4994688;28;20484;-62
2022/01/05 10:59:10;;;;;;;10.63;2.73;;;4.50;99.90;;;;;;4994203;28;20920;-61
2022/01/05 11:01:36;;;;;;;7.60;2.00;;;4.70;99.90;;;;;;4993949;28;20407;-63
2022/01/05 11:04:16;;;;;;;4.47;2.40;;;4.90;99.90;;;;;;4994457;28;20419;-62
2022/01/05 11:06:56;;;;;;;3.87;2.17;;;5.60;99.90;;;;;;4994192;28;20434;-60
2022/01/05 11:09:22;;;;;;;6.37;1.83;;;6.50;99.90;;;;;;4993764;28;20408;-62
2022/01/05 11:11:49;;;;;;;5.87;2.43;;;6.30;99.90;;;;;;4993939;28;20443;-62
2022/01/05 11:14:33;;;;;;;6.67;2.03;;;5.80;99.90;;;;;;4976284;28;20426;-62
2022/01/05 11:17:03;;;;;;;7.10;2.53;;;5.90;99.90;;;;;;4993781;28;20920;-62
2022/01/05 11:19:30;;;;;;;5.83;2.97;;;6.70;99.90;;;;;;4993906;28;20412;-61
2022/01/05 11:22:14;;;;;;;3.53;2.50;;;8.20;99.90;;;;;;4993782;28;20429;-62
2022/01/05 11:24:51;;;;;;;4.70;2.40;;;9.20;98.60;;;;;;4993678;28;20407;-61
2022/01/05 11:27:27;;;;;;;6.63;3.10;;;10.50;96.80;;;;;;4993708;28;20900;-62
2022/01/05 11:29:54;;;;;;;5.77;2.63;;;11.60;94.50;;;;;;4994171;28;20788;-62
2022/01/05 11:32:25;;;;;;;4.90;2.23;;;11.30;93.10;;;;;;4993396;28;20462;-61
2022/01/05 11:34:51;;;;;;;5.03;2.20;;;10.10;94.40;;;;;;4994025;28;20387;-62
2022/01/05 11:37:18;;;;;;;3.60;1.90;;;9.10;96.60;;;;;;4993494;28;20399;-62
2022/01/05 11:39:49;;;;;;;6.40;2.23;;;9.00;98.10;;;;;;4993876;28;20818;-61
2022/01/05 11:42:25;;;;;;;8.40;2.57;;;8.70;97.50;;;;;;4993756;28;20497;-61
2022/01/05 11:44:54;;;;;;;3.40;1.90;;;8.20;96.70;;;;;;4993621;28;20400;-61
2022/01/05 11:47:28;;;;;;;5.63;2.30;;;7.70;99.00;;;;;;4994040;28;20493;-61
2022/01/05 11:50:15;;;;;;;7.47;3.67;;;7.20;99.90;;;;;;4994314;28;20896;-61
2022/01/05 11:52:56;;;;;;;4.40;2.00;;;6.70;99.80;;;;;;4993053;28;20529;-60
2022/01/05 11:55:23;;;;;;;5.37;3.00;;;6.30;99.90;;;;;;4993631;28;20413;-60
2022/01/05 11:58:13;;;;;;;6.43;2.30;;;6.00;99.90;;;;;;4992830;28;20402;-59
2022/01/05 12:00:39;;;;;;;5.07;2.47;;;5.90;99.90;;;;;;4993019;28;20394;-60
2022/01/05 12:03:05;;;;;;;5.90;2.53;;;5.90;99.90;;;;;;4993545;28;20420;-60
2022/01/05 12:06:09;;;;;;;7.50;2.50;;;5.90;99.90;;;;;;4993431;28;20914;-60
2022/01/05 12:08:46;;;;;;;3.90;1.93;;;6.30;99.90;;;;;;4992604;28;20640;-58
2022/01/05 12:11:35;;;;;;;6.00;2.80;;;7.50;99.90;;;;;;4993608;28;20396;-61
2022/01/05 12:14:27;;;;;;;4.53;2.60;;;9.60;98.30;;;;;;4993612;28;20389;-61
2022/01/05 12:17:01;;;;;;;5.57;2.47;;;10.80;95.70;;;;;;4969219;28;20427;-62
2022/01/05 12:19:48;;;;;;;4.20;2.43;;;10.10;94.60;;;;;;4967140;28;21121;-59
2022/01/05 12:22:22;;;;;;;7.33;2.77;;;10.20;95.60;;;;;;4984685;28;21482;-61
2022/01/05 12:24:57;;;;;;;6.07;2.13;;;9.60;96.00;;;;;;4985057;28;20489;-61
2022/01/05 12:27:32;;;;;;;6.33;3.20;;;8.60;97.40;;;;;;4984908;28;20447;-59
2022/01/05 12:29:58;;;;;;;6.93;2.40;;;7.70;98.00;;;;;;4984562;28;20881;-59
2022/01/05 12:32:40;;;;;;;5.60;2.20;;;7.10;98.40;;;;;;4984583;28;20498;-59
2022/01/05 12:35:15;;;;;;;7.47;2.70;;;7.30;98.80;;;;;;4984803;28;20428;-61
2022/01/05 12:37:50;;;;;;;6.80;2.83;;;7.20;99.20;;;;;;4987175;28;20445;-61
2022/01/05 12:40:31;;;;;;;4.00;2.23;;;7.10;99.20;;;;;;4987969;28;20406;-60
2022/01/05 12:43:09;;;;;;;7.23;3.17;;;6.60;99.90;;;;;;4987717;28;20500;-61
2022/01/05 12:45:50;;;;;;;6.37;2.30;;;6.20;99.90;;;;;;4987509;28;21436;-61
2022/01/05 12:48:39;;;;;;;7.43;2.90;;;5.70;99.90;;;;;;4987473;28;20856;-61
2022/01/05 12:51:17;;;;;;;5.17;2.10;;;5.60;99.90;;;;;;4995886;28;20415;-62
2022/01/05 12:54:07;;;;;;;7.70;2.63;;;5.50;99.90;;;;;;4996087;28;20822;-62
2022/01/05 12:56:41;;;;;;;6.13;2.07;;;5.20;99.90;;;;;;4996759;28;20428;-61
2022/01/05 12:59:22;;;;;;;6.93;2.27;;;5.20;99.90;;;;;;4996135;28;20445;-55
2022/01/05 13:01:53;;;;;;;5.07;2.07;;;5.10;99.90;;;;;;4996683;28;20392;-59
2022/01/05 13:04:23;;;;;;;2.93;2.03;;;5.30;99.90;;;;;;4996609;28;20422;-61